MDJB

La Isabela International Airport

La Isabela, Dominican Republic
TAF MDJB 182200Z 1900/1924 00000KT 9999 SCT018 BECMG 1915/1917 18008KT
Issued Valid From Valid To
Dec-18 @ 22:00 UTC
(2 hours ago)
Dec-19 @ 00:00 UTC
(12 minutes ago)
Dec-20 @ 00:00 UTC
(in 24 hours)
Dec-19 @ 00:00 to Dec-19 @ 15:00
TAF MDJB 182200Z 1900/1924 00000KT 9999 SCT018
Visibility Clouds
10,000+ meters
  • Scattered at 1,800' AGL
Becoming Dec-19 @ 15:00 to Dec-20 @ 00:00
BECMG 1915/1917 18008KT
Wind Visibility Clouds
180° at 8 knots 10,000+ meters
  • Scattered at 1,800' AGL
TAF MDJB 182200Z 1900/1924 00000KT 9999 SCT018 BECMG 1915/1917 18008KT
Issued Dec-18 @ 22:00 UTC
(2 hours ago)
Valid From Dec-19 @ 00:00 UTC
(12 minutes ago)
Valid To Dec-20 @ 00:00 UTC
(in 24 hours)
Dec-19 @ 00:00 - Dec-19 @ 15:00
Clouds
  • Scattered at 1,800' AGL
Becoming Dec-19 @ 15:00 - Dec-20 @ 00:00
Wind Visibility
180° at 8 knots 10,000+ meters
Clouds
  • Scattered at 1,800' AGL